Impacts TAF Board INFO
FOR SITUATIONAL AWARENESS. NOT TO BE USED FOR FLIGHT PLANNING PURPOSES.
IDs:

KPIT - Pittsburgh Intl, PA, US

Issued at 0244 UTC 18 Aug 2017
Updated at 0322 UTC 18 Aug 2017
Potential Impact None Slight Moderate High
Time0251Z 18/04Z 18/05Z 18/06Z 18/07Z 18/08Z 18/09Z 18/10Z 18/11Z 18/12Z 18/13Z 18/14Z 18/15Z 18/16Z>>
Type OBS PRVL PRVL PRVL PRVL PRVL PRVL PRVL PRVL PRVL PRVL PRVL PRVL PRVL
VIS 10 >6 >6 >6 >6 >6 >6 >6 >6 >6 >6 >6 >6 >6
CIG 160 100 25 25 25 25 25 25 15 15 15 15 35 35
Cover BKN BKN BKN BKN BKN BKN BKN BKN BKN BKN BKN BKN BKN BKN
FltCat VFR VFR MVFR MVFR MVFR MVFR MVFR MVFR MVFR MVFR MVFR MVFR VFR VFR
WX -- -- -SHRA -SHRA -SHRA -SHRA -SHRA -SHRA VCSH VCSH VCSH VCSH -- --
WDir 200 210 200 200 200 200 200 200 200 200 200 200 230 230
WSpd 5 7 5 5 5 5 5 5 4 4 4 4 7 7
WGst -- -- -- -- -- -- -- -- -- -- -- -- -- --

Raw TAF
KPIT 180244Z 1803/1906 21007KT P6SM SCT035 BKN100
  FM180500 20005KT P6SM -SHRA BKN025
  FM181100 20004KT P6SM VCSH BKN015
  FM181500 23007KT P6SM BKN035
  FM190000 27007KT P6SM SCT045


Raw METAR
KPIT 180251Z 20005KT 10SM FEW110 BKN160 23/22 A2988 RMK AO2 SLP114 60010 T02330217 50004
KPIT 180203Z 22009KT 10SM FEW012 SCT023 BKN100 24/23 A2989 RMK AO2 T02390228
KPIT 180151Z 22010KT 10SM SCT013 BKN022 BKN110 24/23 A2989 RMK AO2 RAE32 TSB03E35 SLP118 P0006 T02390228
KPIT 180135Z 21010G18KT 10SM SCT011 BKN024 OVC100 24/23 A2988 RMK AO2 RAE32 TSB03E35 P0006 T02440233
KPIT 180103Z 20003KT 6SM -TSRA BR FEW028CB BKN070 OVC100 24/23 A2988 RMK AO2 TSB03 OCNL LTGCG VC W TS VC W MOV E P0003 T02390228
KPIT 180051Z 18003KT 6SM -RA BR FEW050 BKN080 OVC110 24/23 A2988 RMK AO2 SLP115 P0004 T02440228

METAR Board
Radar Display
Forecast Discussion

FOR SITUATIONAL AWARENESS. NOT TO BE USED FOR FLIGHT PLANNING PURPOSES.